sensor_id;sensor_type;location;lat;lon;timestamp;P1;durP1;ratioP1;P2;durP2;ratioP2
35592;SDS011;64447;52.140;5.602;2022-11-20T00:00:11;23.88;;;14.07;;
35592;SDS011;64447;52.140;5.602;2022-11-20T00:02:37;23.52;;;13.45;;
35592;SDS011;64447;52.140;5.602;2022-11-20T00:05:03;20.02;;;12.75;;
35592;SDS011;64447;52.140;5.602;2022-11-20T00:07:29;21.55;;;12.57;;
35592;SDS011;64447;52.140;5.602;2022-11-20T00:09:55;20.20;;;12.07;;
35592;SDS011;64447;52.140;5.602;2022-11-20T00:12:21;20.88;;;13.35;;
35592;SDS011;64447;52.140;5.602;2022-11-20T00:17:51;26.05;;;13.85;;
35592;SDS011;64447;52.140;5.602;2022-11-20T00:20:17;24.92;;;16.65;;
35592;SDS011;64447;52.140;5.602;2022-11-20T00:22:43;25.55;;;15.23;;
35592;SDS011;64447;52.140;5.602;2022-11-20T00:25:09;22.83;;;13.52;;
35592;SDS011;64447;52.140;5.602;2022-11-20T00:27:36;27.92;;;15.60;;
35592;SDS011;64447;52.140;5.602;2022-11-20T00:33:05;28.80;;;14.50;;
35592;SDS011;64447;52.140;5.602;2022-11-20T00:35:31;22.88;;;14.13;;
35592;SDS011;64447;52.140;5.602;2022-11-20T00:37:57;22.50;;;14.30;;
35592;SDS011;64447;52.140;5.602;2022-11-20T00:40:23;23.00;;;13.90;;
35592;SDS011;64447;52.140;5.602;2022-11-20T00:42:49;23.40;;;14.75;;
35592;SDS011;64447;52.140;5.602;2022-11-20T00:48:18;25.55;;;14.63;;
35592;SDS011;64447;52.140;5.602;2022-11-20T00:50:44;22.95;;;13.05;;
35592;SDS011;64447;52.140;5.602;2022-11-20T00:53:10;24.77;;;14.77;;
35592;SDS011;64447;52.140;5.602;2022-11-20T00:55:36;23.48;;;15.27;;
35592;SDS011;64447;52.140;5.602;2022-11-20T00:58:02;26.20;;;14.80;;
35592;SDS011;64447;52.140;5.602;2022-11-20T01:03:51;26.25;;;16.58;;
35592;SDS011;64447;52.140;5.602;2022-11-20T01:06:19;25.45;;;15.50;;
35592;SDS011;64447;52.140;5.602;2022-11-20T01:08:45;24.20;;;14.15;;
35592;SDS011;64447;52.140;5.602;2022-11-20T01:11:13;23.40;;;13.10;;
35592;SDS011;64447;52.140;5.602;2022-11-20T01:13:39;21.65;;;13.32;;
35592;SDS011;64447;52.140;5.602;2022-11-20T01:16:07;21.65;;;13.48;;
35592;SDS011;64447;52.140;5.602;2022-11-20T01:18:34;21.45;;;13.48;;
35592;SDS011;64447;52.140;5.602;2022-11-20T01:21:04;21.33;;;13.32;;
35592;SDS011;64447;52.140;5.602;2022-11-20T01:23:31;22.45;;;13.15;;
35592;SDS011;64447;52.140;5.602;2022-11-20T01:25:59;25.25;;;14.32;;
35592;SDS011;64447;52.140;5.602;2022-11-20T01:28:25;20.73;;;13.30;;
35592;SDS011;64447;52.140;5.602;2022-11-20T01:30:51;23.35;;;13.88;;
35592;SDS011;64447;52.140;5.602;2022-11-20T01:33:17;22.40;;;13.95;;
35592;SDS011;64447;52.140;5.602;2022-11-20T01:35:42;25.05;;;14.63;;
35592;SDS011;64447;52.140;5.602;2022-11-20T01:38:08;25.30;;;14.80;;
35592;SDS011;64447;52.140;5.602;2022-11-20T01:40:34;24.17;;;14.27;;
35592;SDS011;64447;52.140;5.602;2022-11-20T01:43:19;21.17;;;13.57;;
35592;SDS011;64447;52.140;5.602;2022-11-20T01:49:15;25.88;;;14.95;;
35592;SDS011;64447;52.140;5.602;2022-11-20T01:51:44;20.77;;;12.82;;
35592;SDS011;64447;52.140;5.602;2022-11-20T01:54:12;24.40;;;14.75;;
35592;SDS011;64447;52.140;5.602;2022-11-20T01:56:40;26.67;;;14.80;;
35592;SDS011;64447;52.140;5.602;2022-11-20T01:59:07;22.58;;;14.27;;
35592;SDS011;64447;52.140;5.602;2022-11-20T02:01:34;24.63;;;15.20;;
35592;SDS011;64447;52.140;5.602;2022-11-20T02:04:00;28.20;;;14.90;;
35592;SDS011;64447;52.140;5.602;2022-11-20T02:06:31;22.17;;;14.05;;
35592;SDS011;64447;52.140;5.602;2022-11-20T02:09:00;25.80;;;14.90;;
35592;SDS011;64447;52.140;5.602;2022-11-20T02:11:26;21.23;;;13.90;;
35592;SDS011;64447;52.140;5.602;2022-11-20T02:13:52;23.20;;;14.30;;
35592;SDS011;64447;52.140;5.602;2022-11-20T02:16:23;26.55;;;14.80;;
35592;SDS011;64447;52.140;5.602;2022-11-20T02:18:50;24.27;;;14.02;;
35592;SDS011;64447;52.140;5.602;2022-11-20T02:24:34;21.67;;;13.30;;
35592;SDS011;64447;52.140;5.602;2022-11-20T02:29:23;25.50;;;13.82;;
35592;SDS011;64447;52.140;5.602;2022-11-20T02:31:50;25.38;;;14.73;;
35592;SDS011;64447;52.140;5.602;2022-11-20T02:34:17;24.80;;;14.77;;
35592;SDS011;64447;52.140;5.602;2022-11-20T02:36:43;22.73;;;14.82;;
35592;SDS011;64447;52.140;5.602;2022-11-20T02:39:11;25.73;;;15.00;;
35592;SDS011;64447;52.140;5.602;2022-11-20T02:44:03;26.58;;;15.40;;
35592;SDS011;64447;52.140;5.602;2022-11-20T02:46:30;27.05;;;15.88;;
35592;SDS011;64447;52.140;5.602;2022-11-20T02:48:56;25.23;;;15.60;;
35592;SDS011;64447;52.140;5.602;2022-11-20T02:51:22;23.17;;;15.20;;
35592;SDS011;64447;52.140;5.602;2022-11-20T02:53:48;26.67;;;15.60;;
35592;SDS011;64447;52.140;5.602;2022-11-20T02:56:14;27.55;;;14.60;;
35592;SDS011;64447;52.140;5.602;2022-11-20T02:58:41;27.35;;;15.55;;
35592;SDS011;64447;52.140;5.602;2022-11-20T03:04:10;25.20;;;14.88;;
35592;SDS011;64447;52.140;5.602;2022-11-20T03:06:36;28.27;;;14.70;;
35592;SDS011;64447;52.140;5.602;2022-11-20T03:09:02;26.13;;;14.98;;
35592;SDS011;64447;52.140;5.602;2022-11-20T03:11:28;26.60;;;14.45;;
35592;SDS011;64447;52.140;5.602;2022-11-20T03:13:54;25.83;;;14.10;;
35592;SDS011;64447;52.140;5.602;2022-11-20T03:16:21;23.45;;;13.23;;
35592;SDS011;64447;52.140;5.602;2022-11-20T03:18:47;26.23;;;14.80;;
35592;SDS011;64447;52.140;5.602;2022-11-20T03:21:14;24.13;;;14.02;;
35592;SDS011;64447;52.140;5.602;2022-11-20T03:23:40;22.80;;;13.82;;
35592;SDS011;64447;52.140;5.602;2022-11-20T03:26:10;23.48;;;14.23;;
35592;SDS011;64447;52.140;5.602;2022-11-20T03:28:37;28.45;;;15.13;;
35592;SDS011;64447;52.140;5.602;2022-11-20T03:34:07;24.98;;;14.50;;
35592;SDS011;64447;52.140;5.602;2022-11-20T03:36:33;24.38;;;13.80;;
35592;SDS011;64447;52.140;5.602;2022-11-20T03:38:59;25.42;;;13.82;;
35592;SDS011;64447;52.140;5.602;2022-11-20T03:41:26;23.13;;;14.10;;
35592;SDS011;64447;52.140;5.602;2022-11-20T03:43:57;22.70;;;14.30;;
35592;SDS011;64447;52.140;5.602;2022-11-20T03:49:27;23.23;;;13.85;;
35592;SDS011;64447;52.140;5.602;2022-11-20T03:54:18;25.10;;;14.60;;
35592;SDS011;64447;52.140;5.602;2022-11-20T03:56:44;25.20;;;13.80;;
35592;SDS011;64447;52.140;5.602;2022-11-20T03:59:10;21.88;;;14.15;;
35592;SDS011;64447;52.140;5.602;2022-11-20T04:04:40;25.45;;;14.30;;
35592;SDS011;64447;52.140;5.602;2022-11-20T04:07:06;25.63;;;13.88;;
35592;SDS011;64447;52.140;5.602;2022-11-20T04:09:32;26.30;;;14.57;;
35592;SDS011;64447;52.140;5.602;2022-11-20T04:11:58;22.38;;;14.02;;
35592;SDS011;64447;52.140;5.602;2022-11-20T04:14:24;26.73;;;14.15;;
35592;SDS011;64447;52.140;5.602;2022-11-20T04:16:50;26.25;;;14.60;;
35592;SDS011;64447;52.140;5.602;2022-11-20T04:19:16;26.40;;;13.55;;
35592;SDS011;64447;52.140;5.602;2022-11-20T04:21:43;22.15;;;13.88;;
35592;SDS011;64447;52.140;5.602;2022-11-20T04:24:09;25.73;;;14.10;;
35592;SDS011;64447;52.140;5.602;2022-11-20T04:26:35;29.15;;;14.70;;
35592;SDS011;64447;52.140;5.602;2022-11-20T04:29:02;25.83;;;14.32;;
35592;SDS011;64447;52.140;5.602;2022-11-20T04:34:31;23.20;;;13.85;;
35592;SDS011;64447;52.140;5.602;2022-11-20T04:36:57;25.75;;;14.55;;
35592;SDS011;64447;52.140;5.602;2022-11-20T04:39:23;23.05;;;14.73;;
35592;SDS011;64447;52.140;5.602;2022-11-20T04:41:49;27.05;;;14.25;;
35592;SDS011;64447;52.140;5.602;2022-11-20T04:44:38;23.42;;;14.20;;
35592;SDS011;64447;52.140;5.602;2022-11-20T04:47:04;23.10;;;14.50;;
35592;SDS011;64447;52.140;5.602;2022-11-20T04:49:31;25.67;;;13.98;;
35592;SDS011;64447;52.140;5.602;2022-11-20T04:51:58;27.73;;;14.15;;
35592;SDS011;64447;52.140;5.602;2022-11-20T04:54:24;25.35;;;14.63;;
35592;SDS011;64447;52.140;5.602;2022-11-20T04:56:50;24.58;;;13.60;;
35592;SDS011;64447;52.140;5.602;2022-11-20T04:59:16;24.75;;;13.43;;
35592;SDS011;64447;52.140;5.602;2022-11-20T05:01:42;24.23;;;13.70;;
35592;SDS011;64447;52.140;5.602;2022-11-20T05:04:08;21.73;;;13.10;;
35592;SDS011;64447;52.140;5.602;2022-11-20T05:06:34;26.70;;;14.55;;
35592;SDS011;64447;52.140;5.602;2022-11-20T05:09:00;26.40;;;14.82;;
35592;SDS011;64447;52.140;5.602;2022-11-20T05:11:27;24.60;;;14.93;;
35592;SDS011;64447;52.140;5.602;2022-11-20T05:13:57;23.30;;;14.35;;
35592;SDS011;64447;52.140;5.602;2022-11-20T05:16:24;24.33;;;14.32;;
35592;SDS011;64447;52.140;5.602;2022-11-20T05:18:50;24.58;;;13.85;;
35592;SDS011;64447;52.140;5.602;2022-11-20T05:23:43;23.08;;;14.07;;
35592;SDS011;64447;52.140;5.602;2022-11-20T05:26:13;27.75;;;14.85;;
35592;SDS011;64447;52.140;5.602;2022-11-20T05:28:40;27.42;;;14.80;;
35592;SDS011;64447;52.140;5.602;2022-11-20T05:31:13;28.52;;;15.40;;
35592;SDS011;64447;52.140;5.602;2022-11-20T05:33:39;28.33;;;15.10;;
35592;SDS011;64447;52.140;5.602;2022-11-20T05:36:07;28.90;;;15.45;;
35592;SDS011;64447;52.140;5.602;2022-11-20T05:38:33;26.45;;;14.18;;
35592;SDS011;64447;52.140;5.602;2022-11-20T05:41:07;27.10;;;14.98;;
35592;SDS011;64447;52.140;5.602;2022-11-20T05:43:33;25.42;;;15.82;;
35592;SDS011;64447;52.140;5.602;2022-11-20T05:46:00;26.67;;;15.57;;
35592;SDS011;64447;52.140;5.602;2022-11-20T05:48:26;29.17;;;15.27;;
35592;SDS011;64447;52.140;5.602;2022-11-20T05:50:52;31.02;;;15.93;;
35592;SDS011;64447;52.140;5.602;2022-11-20T05:53:18;26.33;;;15.68;;
35592;SDS011;64447;52.140;5.602;2022-11-20T05:55:44;29.70;;;15.63;;
35592;SDS011;64447;52.140;5.602;2022-11-20T05:58:10;28.52;;;16.40;;
35592;SDS011;64447;52.140;5.602;2022-11-20T06:00:36;29.52;;;15.32;;
35592;SDS011;64447;52.140;5.602;2022-11-20T06:03:02;32.40;;;14.75;;
35592;SDS011;64447;52.140;5.602;2022-11-20T06:05:28;28.80;;;15.07;;
35592;SDS011;64447;52.140;5.602;2022-11-20T06:07:54;26.90;;;15.07;;
35592;SDS011;64447;52.140;5.602;2022-11-20T06:12:46;26.33;;;14.63;;
35592;SDS011;64447;52.140;5.602;2022-11-20T06:15:12;28.70;;;16.13;;
35592;SDS011;64447;52.140;5.602;2022-11-20T06:17:38;26.02;;;15.73;;
35592;SDS011;64447;52.140;5.602;2022-11-20T06:20:04;30.63;;;15.38;;
35592;SDS011;64447;52.140;5.602;2022-11-20T06:22:31;30.20;;;15.65;;
35592;SDS011;64447;52.140;5.602;2022-11-20T06:24:58;29.45;;;15.35;;
35592;SDS011;64447;52.140;5.602;2022-11-20T06:27:24;30.25;;;16.10;;
35592;SDS011;64447;52.140;5.602;2022-11-20T06:29:50;33.63;;;16.83;;
35592;SDS011;64447;52.140;5.602;2022-11-20T06:32:16;31.10;;;15.80;;
35592;SDS011;64447;52.140;5.602;2022-11-20T06:34:42;26.77;;;15.50;;
35592;SDS011;64447;52.140;5.602;2022-11-20T06:37:08;28.15;;;14.98;;
35592;SDS011;64447;52.140;5.602;2022-11-20T06:39:34;32.97;;;16.50;;
35592;SDS011;64447;52.140;5.602;2022-11-20T06:42:00;32.55;;;15.52;;
35592;SDS011;64447;52.140;5.602;2022-11-20T06:44:26;32.15;;;14.77;;
35592;SDS011;64447;52.140;5.602;2022-11-20T06:46:52;25.95;;;14.82;;
35592;SDS011;64447;52.140;5.602;2022-11-20T06:49:18;27.33;;;15.18;;
35592;SDS011;64447;52.140;5.602;2022-11-20T06:51:44;27.52;;;16.15;;
35592;SDS011;64447;52.140;5.602;2022-11-20T06:54:10;27.95;;;15.93;;
35592;SDS011;64447;52.140;5.602;2022-11-20T06:56:36;24.95;;;14.75;;
35592;SDS011;64447;52.140;5.602;2022-11-20T06:59:06;24.33;;;14.13;;
35592;SDS011;64447;52.140;5.602;2022-11-20T07:01:32;23.73;;;15.23;;
35592;SDS011;64447;52.140;5.602;2022-11-20T07:03:58;23.52;;;14.15;;
35592;SDS011;64447;52.140;5.602;2022-11-20T07:06:24;24.80;;;14.35;;
35592;SDS011;64447;52.140;5.602;2022-11-20T07:08:51;24.02;;;14.20;;
35592;SDS011;64447;52.140;5.602;2022-11-20T07:11:17;24.55;;;14.05;;
35592;SDS011;64447;52.140;5.602;2022-11-20T07:13:43;25.30;;;15.48;;
35592;SDS011;64447;52.140;5.602;2022-11-20T07:16:09;31.77;;;15.48;;
35592;SDS011;64447;52.140;5.602;2022-11-20T07:18:35;23.50;;;14.32;;
35592;SDS011;64447;52.140;5.602;2022-11-20T07:21:05;26.77;;;15.38;;
35592;SDS011;64447;52.140;5.602;2022-11-20T07:23:31;28.67;;;15.75;;
35592;SDS011;64447;52.140;5.602;2022-11-20T07:25:58;28.33;;;15.05;;
35592;SDS011;64447;52.140;5.602;2022-11-20T07:28:24;29.65;;;15.38;;
35592;SDS011;64447;52.140;5.602;2022-11-20T07:30:52;21.30;;;14.48;;
35592;SDS011;64447;52.140;5.602;2022-11-20T07:33:19;29.45;;;15.98;;
35592;SDS011;64447;52.140;5.602;2022-11-20T07:35:45;27.67;;;15.85;;
35592;SDS011;64447;52.140;5.602;2022-11-20T07:38:11;25.48;;;15.32;;
35592;SDS011;64447;52.140;5.602;2022-11-20T07:40:37;26.63;;;15.43;;
35592;SDS011;64447;52.140;5.602;2022-11-20T07:43:03;29.77;;;16.77;;
35592;SDS011;64447;52.140;5.602;2022-11-20T07:45:29;27.40;;;16.73;;
35592;SDS011;64447;52.140;5.602;2022-11-20T07:47:55;28.50;;;16.30;;
35592;SDS011;64447;52.140;5.602;2022-11-20T07:50:21;29.85;;;16.75;;
35592;SDS011;64447;52.140;5.602;2022-11-20T07:52:47;23.98;;;16.48;;
35592;SDS011;64447;52.140;5.602;2022-11-20T07:55:13;27.80;;;17.42;;
35592;SDS011;64447;52.140;5.602;2022-11-20T07:57:39;31.20;;;16.33;;
35592;SDS011;64447;52.140;5.602;2022-11-20T08:00:06;28.35;;;17.33;;
35592;SDS011;64447;52.140;5.602;2022-11-20T08:02:34;25.65;;;15.98;;
35592;SDS011;64447;52.140;5.602;2022-11-20T08:05:00;37.92;;;21.85;;
35592;SDS011;64447;52.140;5.602;2022-11-20T08:07:26;49.78;;;25.15;;
35592;SDS011;64447;52.140;5.602;2022-11-20T08:09:51;41.15;;;22.08;;
35592;SDS011;64447;52.140;5.602;2022-11-20T08:12:18;45.17;;;20.98;;
35592;SDS011;64447;52.140;5.602;2022-11-20T08:15:04;28.38;;;18.65;;
35592;SDS011;64447;52.140;5.602;2022-11-20T08:17:30;30.45;;;17.25;;
35592;SDS011;64447;52.140;5.602;2022-11-20T08:19:56;27.25;;;16.73;;
35592;SDS011;64447;52.140;5.602;2022-11-20T08:22:22;27.40;;;16.50;;
35592;SDS011;64447;52.140;5.602;2022-11-20T08:24:48;28.92;;;16.52;;
35592;SDS011;64447;52.140;5.602;2022-11-20T08:27:14;26.85;;;17.40;;
35592;SDS011;64447;52.140;5.602;2022-11-20T08:29:40;27.33;;;16.27;;
35592;SDS011;64447;52.140;5.602;2022-11-20T08:32:06;28.25;;;16.13;;
35592;SDS011;64447;52.140;5.602;2022-11-20T08:34:32;29.55;;;16.63;;
35592;SDS011;64447;52.140;5.602;2022-11-20T08:36:58;31.15;;;17.23;;
35592;SDS011;64447;52.140;5.602;2022-11-20T08:39:24;27.77;;;16.00;;
35592;SDS011;64447;52.140;5.602;2022-11-20T08:41:50;30.20;;;17.65;;
35592;SDS011;64447;52.140;5.602;2022-11-20T08:44:16;30.88;;;19.98;;
35592;SDS011;64447;52.140;5.602;2022-11-20T08:46:42;34.05;;;20.83;;
35592;SDS011;64447;52.140;5.602;2022-11-20T08:49:09;32.55;;;18.55;;
35592;SDS011;64447;52.140;5.602;2022-11-20T08:51:36;31.48;;;17.90;;
35592;SDS011;64447;52.140;5.602;2022-11-20T08:54:02;28.58;;;17.73;;
35592;SDS011;64447;52.140;5.602;2022-11-20T08:56:28;34.15;;;19.75;;
35592;SDS011;64447;52.140;5.602;2022-11-20T08:58:54;37.33;;;21.73;;
35592;SDS011;64447;52.140;5.602;2022-11-20T09:01:21;32.33;;;20.45;;
35592;SDS011;64447;52.140;5.602;2022-11-20T09:03:48;32.53;;;21.92;;
35592;SDS011;64447;52.140;5.602;2022-11-20T09:06:14;40.40;;;21.15;;
35592;SDS011;64447;52.140;5.602;2022-11-20T09:08:40;35.30;;;21.35;;
35592;SDS011;64447;52.140;5.602;2022-11-20T09:11:06;42.90;;;24.48;;
35592;SDS011;64447;52.140;5.602;2022-11-20T09:13:32;40.63;;;24.60;;
35592;SDS011;64447;52.140;5.602;2022-11-20T09:16:00;38.85;;;24.90;;
35592;SDS011;64447;52.140;5.602;2022-11-20T09:18:27;44.65;;;26.02;;
35592;SDS011;64447;52.140;5.602;2022-11-20T09:20:57;43.55;;;28.13;;
35592;SDS011;64447;52.140;5.602;2022-11-20T09:23:23;43.03;;;26.50;;
35592;SDS011;64447;52.140;5.602;2022-11-20T09:25:50;49.33;;;30.98;;
35592;SDS011;64447;52.140;5.602;2022-11-20T09:28:17;60.10;;;36.47;;
35592;SDS011;64447;52.140;5.602;2022-11-20T09:30:43;52.00;;;30.35;;
35592;SDS011;64447;52.140;5.602;2022-11-20T09:33:09;46.40;;;29.08;;
35592;SDS011;64447;52.140;5.602;2022-11-20T09:35:35;41.58;;;24.50;;
35592;SDS011;64447;52.140;5.602;2022-11-20T09:38:05;41.63;;;25.58;;
35592;SDS011;64447;52.140;5.602;2022-11-20T09:40:31;47.10;;;28.00;;
35592;SDS011;64447;52.140;5.602;2022-11-20T09:51:51;39.90;;;24.15;;
35592;SDS011;64447;52.140;5.602;2022-11-20T09:54:23;41.83;;;23.35;;
35592;SDS011;64447;52.140;5.602;2022-11-20T09:59:50;42.67;;;24.63;;
35592;SDS011;64447;52.140;5.602;2022-11-20T10:04:53;37.17;;;23.55;;
35592;SDS011;64447;52.140;5.602;2022-11-20T10:07:23;41.53;;;24.38;;
35592;SDS011;64447;52.140;5.602;2022-11-20T10:09:53;37.90;;;23.55;;
35592;SDS011;64447;52.140;5.602;2022-11-20T10:24:57;40.50;;;24.17;;
35592;SDS011;64447;52.140;5.602;2022-11-20T10:30:15;41.42;;;24.63;;
35592;SDS011;64447;52.140;5.602;2022-11-20T10:32:43;41.55;;;25.52;;
35592;SDS011;64447;52.140;5.602;2022-11-20T10:35:14;47.17;;;27.73;;
35592;SDS011;64447;52.140;5.602;2022-11-20T10:37:42;46.97;;;26.25;;
35592;SDS011;64447;52.140;5.602;2022-11-20T10:40:27;43.97;;;25.73;;
35592;SDS011;64447;52.140;5.602;2022-11-20T10:48:15;52.22;;;31.67;;
35592;SDS011;64447;52.140;5.602;2022-11-20T10:50:48;42.47;;;26.33;;
35592;SDS011;64447;52.140;5.602;2022-11-20T10:55:45;61.88;;;33.35;;
35592;SDS011;64447;52.140;5.602;2022-11-20T11:00:47;51.45;;;29.38;;
35592;SDS011;64447;52.140;5.602;2022-11-20T11:03:23;50.47;;;29.65;;
35592;SDS011;64447;52.140;5.602;2022-11-20T11:05:53;61.30;;;36.25;;
35592;SDS011;64447;52.140;5.602;2022-11-20T11:08:20;65.57;;;39.78;;
35592;SDS011;64447;52.140;5.602;2022-11-20T11:11:00;71.72;;;42.85;;
35592;SDS011;64447;52.140;5.602;2022-11-20T11:13:28;71.63;;;38.80;;
35592;SDS011;64447;52.140;5.602;2022-11-20T11:15:55;90.45;;;50.67;;
35592;SDS011;64447;52.140;5.602;2022-11-20T11:18:25;56.75;;;33.90;;
35592;SDS011;64447;52.140;5.602;2022-11-20T11:20:52;56.65;;;32.72;;
35592;SDS011;64447;52.140;5.602;2022-11-20T11:23:34;68.72;;;40.08;;
35592;SDS011;64447;52.140;5.602;2022-11-20T11:26:02;62.45;;;36.47;;
35592;SDS011;64447;52.140;5.602;2022-11-20T11:28:28;72.40;;;41.38;;
35592;SDS011;64447;52.140;5.602;2022-11-20T11:30:54;62.65;;;38.13;;
35592;SDS011;64447;52.140;5.602;2022-11-20T11:33:24;49.90;;;30.70;;
35592;SDS011;64447;52.140;5.602;2022-11-20T11:35:55;49.40;;;29.25;;
35592;SDS011;64447;52.140;5.602;2022-11-20T11:38:40;50.13;;;29.67;;
35592;SDS011;64447;52.140;5.602;2022-11-20T11:41:09;45.80;;;27.13;;
35592;SDS011;64447;52.140;5.602;2022-11-20T11:43:36;52.50;;;29.50;;
35592;SDS011;64447;52.140;5.602;2022-11-20T11:46:29;49.65;;;28.23;;
35592;SDS011;64447;52.140;5.602;2022-11-20T11:48:56;50.97;;;28.63;;
35592;SDS011;64447;52.140;5.602;2022-11-20T11:51:24;51.25;;;29.00;;
35592;SDS011;64447;52.140;5.602;2022-11-20T11:53:51;48.88;;;28.30;;
35592;SDS011;64447;52.140;5.602;2022-11-20T11:56:18;51.42;;;28.02;;
35592;SDS011;64447;52.140;5.602;2022-11-20T11:58:47;49.70;;;27.88;;
35592;SDS011;64447;52.140;5.602;2022-11-20T12:06:25;60.60;;;34.38;;
35592;SDS011;64447;52.140;5.602;2022-11-20T12:08:55;61.45;;;35.20;;
35592;SDS011;64447;52.140;5.602;2022-11-20T12:13:57;66.15;;;37.63;;
35592;SDS011;64447;52.140;5.602;2022-11-20T12:16:26;84.07;;;42.25;;
35592;SDS011;64447;52.140;5.602;2022-11-20T12:18:53;66.90;;;35.78;;
35592;SDS011;64447;52.140;5.602;2022-11-20T12:21:20;78.07;;;42.00;;
35592;SDS011;64447;52.140;5.602;2022-11-20T12:26:29;63.63;;;35.65;;
35592;SDS011;64447;52.140;5.602;2022-11-20T12:29:19;54.03;;;31.02;;
35592;SDS011;64447;52.140;5.602;2022-11-20T12:42:56;54.22;;;30.75;;
35592;SDS011;64447;52.140;5.602;2022-11-20T12:45:48;55.75;;;30.20;;
35592;SDS011;64447;52.140;5.602;2022-11-20T12:54:23;61.42;;;33.47;;
35592;SDS011;64447;52.140;5.602;2022-11-20T12:59:33;57.33;;;29.08;;
35592;SDS011;64447;52.140;5.602;2022-11-20T13:07:48;53.65;;;28.75;;
35592;SDS011;64447;52.140;5.602;2022-11-20T13:10:18;51.58;;;28.45;;
35592;SDS011;64447;52.140;5.602;2022-11-20T13:12:47;48.33;;;29.38;;
35592;SDS011;64447;52.140;5.602;2022-11-20T13:15:22;51.83;;;30.73;;
35592;SDS011;64447;52.140;5.602;2022-11-20T13:20:19;63.72;;;32.55;;
35592;SDS011;64447;52.140;5.602;2022-11-20T13:27:49;59.63;;;30.80;;
35592;SDS011;64447;52.140;5.602;2022-11-20T13:30:17;56.58;;;30.33;;
35592;SDS011;64447;52.140;5.602;2022-11-20T13:38:10;49.28;;;30.13;;
35592;SDS011;64447;52.140;5.602;2022-11-20T13:40:37;53.28;;;32.10;;
35592;SDS011;64447;52.140;5.602;2022-11-20T13:45:30;64.72;;;35.50;;
35592;SDS011;64447;52.140;5.602;2022-11-20T13:47:59;72.38;;;39.08;;
35592;SDS011;64447;52.140;5.602;2022-11-20T13:51:13;78.15;;;40.90;;
35592;SDS011;64447;52.140;5.602;2022-11-20T13:56:05;97.38;;;46.33;;
35592;SDS011;64447;52.140;5.602;2022-11-20T14:01:10;65.25;;;37.47;;
35592;SDS011;64447;52.140;5.602;2022-11-20T14:03:39;71.50;;;39.35;;
35592;SDS011;64447;52.140;5.602;2022-11-20T14:06:12;60.78;;;34.75;;
35592;SDS011;64447;52.140;5.602;2022-11-20T14:08:41;54.13;;;32.17;;
35592;SDS011;64447;52.140;5.602;2022-11-20T14:13:38;56.83;;;33.97;;
35592;SDS011;64447;52.140;5.602;2022-11-20T14:16:04;57.10;;;34.38;;
35592;SDS011;64447;52.140;5.602;2022-11-20T14:18:30;61.88;;;36.80;;
35592;SDS011;64447;52.140;5.602;2022-11-20T14:20:56;60.90;;;34.92;;
35592;SDS011;64447;52.140;5.602;2022-11-20T14:23:26;68.43;;;35.58;;
35592;SDS011;64447;52.140;5.602;2022-11-20T14:25:52;61.33;;;34.42;;
35592;SDS011;64447;52.140;5.602;2022-11-20T14:28:28;67.63;;;39.40;;
35592;SDS011;64447;52.140;5.602;2022-11-20T14:30:55;72.22;;;37.85;;
35592;SDS011;64447;52.140;5.602;2022-11-20T14:33:22;61.35;;;35.38;;
35592;SDS011;64447;52.140;5.602;2022-11-20T14:35:53;58.65;;;35.70;;
35592;SDS011;64447;52.140;5.602;2022-11-20T14:38:24;60.83;;;34.67;;
35592;SDS011;64447;52.140;5.602;2022-11-20T14:43:18;59.17;;;33.40;;
35592;SDS011;64447;52.140;5.602;2022-11-20T14:45:46;63.13;;;34.15;;
35592;SDS011;64447;52.140;5.602;2022-11-20T14:48:14;59.92;;;33.50;;
35592;SDS011;64447;52.140;5.602;2022-11-20T14:50:41;64.18;;;35.90;;
35592;SDS011;64447;52.140;5.602;2022-11-20T14:53:07;62.05;;;36.30;;
35592;SDS011;64447;52.140;5.602;2022-11-20T14:55:34;66.50;;;36.92;;
35592;SDS011;64447;52.140;5.602;2022-11-20T14:58:22;74.93;;;43.28;;
35592;SDS011;64447;52.140;5.602;2022-11-20T15:00:57;71.35;;;42.80;;
35592;SDS011;64447;52.140;5.602;2022-11-20T15:03:30;66.35;;;40.17;;
35592;SDS011;64447;52.140;5.602;2022-11-20T15:05:56;68.63;;;39.03;;
35592;SDS011;64447;52.140;5.602;2022-11-20T15:08:22;71.10;;;41.33;;
35592;SDS011;64447;52.140;5.602;2022-11-20T15:10:49;74.10;;;42.35;;
35592;SDS011;64447;52.140;5.602;2022-11-20T15:13:16;78.93;;;41.65;;
35592;SDS011;64447;52.140;5.602;2022-11-20T15:15:50;73.70;;;39.58;;
35592;SDS011;64447;52.140;5.602;2022-11-20T15:18:18;69.45;;;38.75;;
35592;SDS011;64447;52.140;5.602;2022-11-20T15:20:44;71.43;;;39.25;;
35592;SDS011;64447;52.140;5.602;2022-11-20T15:23:12;69.00;;;39.70;;
35592;SDS011;64447;52.140;5.602;2022-11-20T15:25:39;74.63;;;40.88;;
35592;SDS011;64447;52.140;5.602;2022-11-20T15:28:07;71.75;;;39.28;;
35592;SDS011;64447;52.140;5.602;2022-11-20T15:30:37;74.93;;;42.22;;
35592;SDS011;64447;52.140;5.602;2022-11-20T15:33:02;73.25;;;42.20;;
35592;SDS011;64447;52.140;5.602;2022-11-20T15:38:32;76.05;;;41.75;;
35592;SDS011;64447;52.140;5.602;2022-11-20T15:40:58;68.47;;;39.75;;
35592;SDS011;64447;52.140;5.602;2022-11-20T15:43:24;80.60;;;43.30;;
35592;SDS011;64447;52.140;5.602;2022-11-20T15:48:42;76.05;;;42.05;;
35592;SDS011;64447;52.140;5.602;2022-11-20T15:53:35;81.30;;;45.50;;
35592;SDS011;64447;52.140;5.602;2022-11-20T15:56:05;89.38;;;47.95;;
35592;SDS011;64447;52.140;5.602;2022-11-20T15:58:31;84.80;;;44.75;;
35592;SDS011;64447;52.140;5.602;2022-11-20T16:00:57;86.75;;;40.65;;
35592;SDS011;64447;52.140;5.602;2022-11-20T16:03:22;68.22;;;38.28;;
35592;SDS011;64447;52.140;5.602;2022-11-20T16:09:10;73.05;;;39.20;;
35592;SDS011;64447;52.140;5.602;2022-11-20T16:11:36;69.35;;;38.15;;
35592;SDS011;64447;52.140;5.602;2022-11-20T16:14:02;63.08;;;37.28;;
35592;SDS011;64447;52.140;5.602;2022-11-20T16:16:47;62.78;;;37.20;;
35592;SDS011;64447;52.140;5.602;2022-11-20T16:19:13;68.55;;;38.15;;
35592;SDS011;64447;52.140;5.602;2022-11-20T16:21:40;69.22;;;36.08;;
35592;SDS011;64447;52.140;5.602;2022-11-20T16:24:07;61.97;;;35.25;;
35592;SDS011;64447;52.140;5.602;2022-11-20T16:26:35;65.03;;;36.63;;
35592;SDS011;64447;52.140;5.602;2022-11-20T16:29:02;61.65;;;35.63;;
35592;SDS011;64447;52.140;5.602;2022-11-20T16:31:29;63.55;;;37.63;;
35592;SDS011;64447;52.140;5.602;2022-11-20T16:33:56;68.72;;;38.83;;
35592;SDS011;64447;52.140;5.602;2022-11-20T16:36:24;69.00;;;39.10;;
35592;SDS011;64447;52.140;5.602;2022-11-20T16:38:55;68.40;;;37.25;;
35592;SDS011;64447;52.140;5.602;2022-11-20T16:41:22;73.20;;;39.30;;
35592;SDS011;64447;52.140;5.602;2022-11-20T16:43:52;70.50;;;38.85;;
35592;SDS011;64447;52.140;5.602;2022-11-20T16:46:20;71.10;;;39.60;;
35592;SDS011;64447;52.140;5.602;2022-11-20T16:55:31;79.82;;;43.55;;
35592;SDS011;64447;52.140;5.602;2022-11-20T16:57:56;74.53;;;41.85;;
35592;SDS011;64447;52.140;5.602;2022-11-20T17:00:22;82.40;;;43.22;;
35592;SDS011;64447;52.140;5.602;2022-11-20T17:02:47;75.22;;;41.45;;
35592;SDS011;64447;52.140;5.602;2022-11-20T17:05:13;68.93;;;39.33;;
35592;SDS011;64447;52.140;5.602;2022-11-20T17:07:38;79.00;;;42.67;;
35592;SDS011;64447;52.140;5.602;2022-11-20T17:10:04;74.72;;;40.85;;